Time;durP1;ratioP1;P1;durP2;ratioP2;P2;SDS_P1;SDS_P2;PMS_P1;PMS_P2;Temp;Humidity;BMP_temperature;BMP_pressure;BME280_temperature;BME280_humidity;BME280_pressure;Samples;Min_cycle;Max_cycle;Signal;HPM_P1;HPM_P2
2021/07/08 00:00:22;;;;;;;5.20;3.10;;;;;;;21.58;59.09;101793.06;5012549;28;20109;-58
2021/07/08 00:02:49;;;;;;;4.32;2.60;;;;;;;21.58;59.09;101793.06;5012052;28;20359;-59
2021/07/08 00:05:17;;;;;;;5.30;3.10;;;;;;;21.57;59.13;101799.38;5012393;28;20037;-58
2021/07/08 00:07:45;;;;;;;5.18;2.80;;;;;;;21.56;59.12;101803.81;5013040;28;20029;-58
2021/07/08 00:10:18;;;;;;;5.18;3.10;;;;;;;21.55;59.09;101798.63;5012092;28;20022;-58
2021/07/08 00:12:43;;;;;;;4.35;2.80;;;;;;;21.57;58.99;101794.06;5012609;28;20022;-57
2021/07/08 00:15:13;;;;;;;4.93;2.88;;;;;;;21.56;59.21;101795.00;5012740;28;20072;-58
2021/07/08 00:17:42;;;;;;;4.20;2.83;;;;;;;21.56;59.00;101795.00;5011463;28;20064;-58
2021/07/08 00:20:14;;;;;;;5.28;2.80;;;;;;;21.55;59.02;101799.50;5012546;28;20045;-59
2021/07/08 00:22:40;;;;;;;4.97;2.80;;;;;;;21.55;58.98;101798.63;5013078;28;20121;-59
2021/07/08 00:25:20;;;;;;;5.20;3.20;;;;;;;21.53;59.09;101790.78;5012108;28;20026;-58
2021/07/08 00:27:45;;;;;;;4.63;3.13;;;;;;;21.53;59.07;101787.31;5012454;28;20045;-59
2021/07/08 00:30:11;;;;;;;4.35;2.75;;;;;;;21.51;58.98;101781.28;5011997;28;20025;-58
2021/07/08 00:32:40;;;;;;;5.60;3.00;;;;;;;21.51;58.94;101784.78;5012412;28;20366;-58
2021/07/08 00:35:12;;;;;;;5.63;2.85;;;;;;;21.51;58.95;101787.44;5012729;28;20168;-58
2021/07/08 00:37:41;;;;;;;5.50;3.13;;;;;;;21.51;59.17;101786.59;5011488;28;20414;-59
2021/07/08 00:40:09;;;;;;;4.53;2.60;;;;;;;21.50;58.92;101784.91;5012702;28;20386;-58
2021/07/08 00:42:35;;;;;;;4.60;2.90;;;;;;;21.51;59.05;101790.09;5012333;28;20029;-57
2021/07/08 00:45:04;;;;;;;4.82;2.85;;;;;;;21.48;58.88;101786.81;5011868;28;20347;-59
2021/07/08 00:47:29;;;;;;;5.43;3.00;;;;;;;21.50;59.00;101800.81;5012104;28;20109;-57
2021/07/08 00:49:55;;;;;;;4.80;3.05;;;;;;;21.48;58.91;101794.78;5012686;28;20061;-58
2021/07/08 00:52:20;;;;;;;4.28;2.83;;;;;;;21.49;58.92;101797.31;5011597;28;20500;-58
2021/07/08 00:54:46;;;;;;;4.30;2.80;;;;;;;21.48;58.85;101795.63;5012544;28;20029;-58
2021/07/08 00:57:12;;;;;;;4.63;2.80;;;;;;;21.46;59.00;101792.25;5012535;28;20523;-59
2021/07/08 00:59:43;;;;;;;5.13;2.90;;;;;;;21.46;58.93;101797.53;5011464;28;20096;-57
2021/07/08 01:02:13;;;;;;;5.53;3.08;;;;;;;21.47;58.92;101795.72;5012543;28;20021;-57
2021/07/08 01:04:43;;;;;;;5.10;2.88;;;;;;;21.44;58.92;101794.16;5012393;28;20101;-57
2021/07/08 01:07:10;;;;;;;7.07;3.10;;;;;;;21.47;58.88;101799.22;5011685;28;20018;-61
2021/07/08 01:09:36;;;;;;;4.53;2.72;;;;;;;21.44;58.90;101795.97;5012147;28;20064;-58
2021/07/08 01:12:05;;;;;;;5.20;3.05;;;;;;;21.44;58.69;101796.81;5012399;28;20038;-58
2021/07/08 01:14:30;;;;;;;5.60;3.53;;;;;;;21.45;58.72;101806.44;5011509;28;20208;-57
2021/07/08 01:16:55;;;;;;;6.23;3.13;;;;;;;21.44;58.72;101812.72;5012484;28;20049;-59
2021/07/08 01:19:24;;;;;;;4.57;3.00;;;;;;;21.45;58.88;101810.94;5011334;28;20287;-63
2021/07/08 01:21:49;;;;;;;4.25;2.63;;;;;;;21.45;58.83;101811.75;5012093;28;20045;-58
2021/07/08 01:24:15;;;;;;;4.95;3.00;;;;;;;21.40;59.07;101794.53;5013010;28;20050;-58
2021/07/08 01:26:40;;;;;;;4.28;2.70;;;;;;;21.45;58.73;101808.28;5015131;28;20026;-57
2021/07/08 01:29:06;;;;;;;5.18;2.75;;;;;;;21.45;58.75;101808.28;5015803;28;20022;-59
2021/07/08 01:31:32;;;;;;;4.90;2.80;;;;;;;21.43;58.68;101803.09;5015341;28;20023;-59
2021/07/08 01:34:00;;;;;;;5.13;2.85;;;;;;;21.43;58.89;101805.75;5015063;28;20029;-58
2021/07/08 01:36:25;;;;;;;4.78;2.67;;;;;;;21.44;58.82;101801.28;5014572;28;20359;-59
2021/07/08 01:38:51;;;;;;;5.43;2.60;;;;;;;21.44;58.95;101801.28;5015046;28;20080;-58
2021/07/08 01:41:17;;;;;;;4.50;2.83;;;;;;;21.43;58.84;101796.91;5014044;28;20018;-58
2021/07/08 01:43:44;;;;;;;6.30;2.85;;;;;;;21.43;58.87;101799.56;5015088;28;20030;-59
2021/07/08 01:46:12;;;;;;;4.43;2.67;;;;;;;21.43;58.78;101796.91;5015270;28;20032;-58
2021/07/08 01:48:38;;;;;;;5.25;2.95;;;;;;;21.42;58.75;101790.78;5014129;28;20029;-57
2021/07/08 01:51:06;;;;;;;5.50;2.90;;;;;;;21.43;58.81;101786.31;5014967;28;20033;-57
2021/07/08 01:53:32;;;;;;;4.60;2.75;;;;;;;21.42;58.89;101790.78;5014770;28;20030;-57
2021/07/08 01:55:58;;;;;;;5.30;2.90;;;;;;;21.39;58.74;101791.03;5014048;28;20168;-65
2021/07/08 01:58:24;;;;;;;5.25;2.90;;;;;;;21.41;58.91;101796.22;5014762;28;20061;-60
2021/07/08 02:00:50;;;;;;;5.00;3.00;;;;;;;21.40;58.84;101787.44;5015401;28;20041;-59
2021/07/08 02:03:19;;;;;;;4.40;2.53;;;;;;;21.40;58.85;101782.13;5013859;28;20026;-58
2021/07/08 02:05:45;;;;;;;4.10;2.40;;;;;;;21.40;58.75;101779.47;5015059;28;20125;-57
2021/07/08 02:08:11;;;;;;;4.95;2.60;;;;;;;21.40;58.85;101786.59;5014646;28;20499;-57
2021/07/08 02:10:36;;;;;;;5.15;2.97;;;;;;;21.39;58.77;101780.44;5013483;28;20030;-59
2021/07/08 02:13:02;;;;;;;4.57;3.15;;;;;;;21.38;58.81;101776.09;5014851;28;20041;-57
2021/07/08 02:15:27;;;;;;;4.85;2.90;;;;;;;21.38;58.68;101778.75;5014211;28;20030;-57
2021/07/08 02:17:53;;;;;;;4.82;3.10;;;;;;;21.39;58.76;101780.44;5014317;28;20022;-58
2021/07/08 02:20:19;;;;;;;4.28;2.70;;;;;;;21.33;58.56;101776.47;5014156;28;20124;-58
2021/07/08 02:22:44;;;;;;;4.90;2.78;;;;;;;21.36;58.74;101776.22;5013594;28;20125;-58
2021/07/08 02:25:13;;;;;;;4.13;2.80;;;;;;;21.37;58.95;101791.16;5014218;28;20026;-57
2021/07/08 02:27:39;;;;;;;4.78;3.08;;;;;;;21.38;58.74;101787.56;5014250;28;20026;-57
2021/07/08 02:30:10;;;;;;;4.78;2.80;;;;;;;21.35;58.66;101785.13;5013466;28;20084;-58
2021/07/08 02:32:38;;;;;;;5.25;3.30;;;;;;;21.36;58.64;101792.13;5014115;28;20029;-57
2021/07/08 02:35:08;;;;;;;4.93;2.85;;;;;;;21.37;58.72;101790.31;5014103;28;20033;-56
2021/07/08 02:37:34;;;;;;;5.05;2.80;;;;;;;21.37;58.72;101795.63;5012773;28;20056;-57
2021/07/08 02:39:59;;;;;;;4.50;3.05;;;;;;;21.35;58.65;101792.25;5013858;28;20489;-57
2021/07/08 02:42:24;;;;;;;4.82;2.92;;;;;;;21.36;58.73;101797.44;5013781;28;20033;-58
2021/07/08 02:44:50;;;;;;;4.93;2.72;;;;;;;21.36;58.82;101794.78;5013643;28;20033;-58
2021/07/08 02:47:18;;;;;;;4.40;2.97;;;;;;;21.35;58.62;101793.09;5013834;28;20053;-58
2021/07/08 02:49:46;;;;;;;4.90;2.70;;;;;;;21.34;58.68;101791.41;5013832;28;20034;-58
2021/07/08 02:52:11;;;;;;;4.40;2.85;;;;;;;21.35;58.46;101794.91;5012946;28;20441;-57
2021/07/08 02:54:39;;;;;;;5.30;3.27;;;;;;;21.35;58.66;101797.56;5013642;28;20057;-57
2021/07/08 02:57:05;;;;;;;4.45;2.70;;;;;;;21.34;58.63;101793.22;5013519;28;20736;-58
2021/07/08 02:59:30;;;;;;;4.60;2.85;;;;;;;21.35;58.56;101805.53;5012726;28;20083;-57
2021/07/08 03:01:55;;;;;;;5.05;2.97;;;;;;;21.35;58.66;101810.81;5013823;28;20049;-58
2021/07/08 03:04:21;;;;;;;4.88;3.15;;;;;;;21.33;58.87;101804.78;5013254;28;20032;-57
2021/07/08 03:06:49;;;;;;;4.93;2.70;;;;;;;21.34;58.57;101804.66;5012703;28;20030;-58
2021/07/08 03:09:15;;;;;;;4.15;2.85;;;;;;;21.33;58.44;101803.00;5013416;28;20026;-58
2021/07/08 03:11:40;;;;;;;4.20;2.80;;;;;;;21.33;58.74;101805.63;5013510;28;20029;-57
2021/07/08 03:14:05;;;;;;;5.13;2.83;;;;;;;21.32;58.58;101803.09;5012709;28;20414;-58
2021/07/08 03:16:31;;;;;;;5.03;2.85;;;;;;;21.32;58.65;101809.25;5013150;28;20033;-57
2021/07/08 03:18:56;;;;;;;4.43;2.75;;;;;;;21.32;58.76;101809.25;5012588;28;20105;-57
2021/07/08 03:21:22;;;;;;;5.00;2.90;;;;;;;21.32;58.33;101813.72;5013128;28;20030;-58
2021/07/08 03:23:50;;;;;;;4.75;3.13;;;;;;;21.32;58.62;101809.25;5013447;28;20026;-57
2021/07/08 03:26:15;;;;;;;4.68;2.78;;;;;;;21.31;58.62;101812.84;5012118;28;20497;-57
2021/07/08 03:28:41;;;;;;;4.90;2.90;;;;;;;21.30;58.32;101812.97;5013280;28;20034;-57
2021/07/08 03:31:06;;;;;;;4.15;2.95;;;;;;;21.31;58.64;101807.56;5013283;28;20342;-58
2021/07/08 03:33:31;;;;;;;4.70;2.92;;;;;;;21.29;58.40;101808.66;5012207;28;20022;-58
2021/07/08 03:36:02;;;;;;;4.65;3.10;;;;;;;21.28;58.58;101813.09;5012750;28;20042;-58
2021/07/08 03:38:33;;;;;;;4.32;2.75;;;;;;;21.30;58.57;101815.63;5012746;28;20034;-57
2021/07/08 03:40:58;;;;;;;6.30;3.25;;;;;;;21.30;58.66;101818.28;5012263;28;20105;-57
2021/07/08 03:43:23;;;;;;;5.15;3.17;;;;;;;21.30;58.57;101819.13;5012362;28;20060;-58
2021/07/08 03:45:49;;;;;;;4.60;3.00;;;;;;;21.29;58.74;101812.13;5012744;28;20068;-58
2021/07/08 03:48:15;;;;;;;5.23;2.83;;;;;;;21.27;58.68;101811.44;5011462;28;20030;-58
2021/07/08 03:50:40;;;;;;;5.13;3.13;;;;;;;21.30;58.57;101820.94;5012626;28;20318;-58
2021/07/08 03:53:06;;;;;;;4.90;2.90;;;;;;;21.27;58.68;101816.72;5013428;28;20092;-57
2021/07/08 03:55:32;;;;;;;5.07;3.00;;;;;;;21.28;58.59;101818.41;5011783;28;20105;-57
2021/07/08 03:57:57;;;;;;;4.10;2.72;;;;;;;21.28;58.67;101815.75;5012537;28;20046;-57
2021/07/08 04:00:29;;;;;;;6.43;3.13;;;;;;;21.28;58.88;101806.97;5012339;28;20039;-57
2021/07/08 04:03:14;;;;;;;6.00;3.10;;;;;;;21.27;58.63;101807.91;5011967;28;20043;-58
2021/07/08 04:05:41;;;;;;;5.47;3.00;;;;;;;21.25;58.53;101808.03;5012577;28;20025;-58
2021/07/08 04:08:08;;;;;;;4.25;2.58;;;;;;;21.27;58.44;101808.78;5011991;28;20033;-58
2021/07/08 04:10:36;;;;;;;4.60;3.00;;;;;;;21.27;58.45;101814.09;5012129;28;20026;-58
2021/07/08 04:13:08;;;;;;;4.50;3.00;;;;;;;21.28;58.47;101817.56;5012310;28;20018;-58
2021/07/08 04:15:34;;;;;;;5.30;3.10;;;;;;;21.26;58.56;101817.69;5011400;28;20034;-58
2021/07/08 04:18:00;;;;;;;5.05;3.03;;;;;;;21.27;58.60;101816.72;5012363;28;20377;-58
2021/07/08 04:20:25;;;;;;;6.50;3.38;;;;;;;21.27;58.45;101816.72;5012184;28;20060;-57
2021/07/08 04:22:51;;;;;;;5.22;3.00;;;;;;;21.26;58.52;101812.38;5011647;28;20385;-58
2021/07/08 04:25:18;;;;;;;4.40;2.63;;;;;;;21.26;58.40;101819.50;5011951;28;20021;-58
2021/07/08 04:27:44;;;;;;;5.28;2.60;;;;;;;21.25;58.43;101826.59;5012392;28;20026;-58
2021/07/08 04:30:12;;;;;;;4.65;2.88;;;;;;;21.26;58.49;101823.00;5011161;28;20504;-58
2021/07/08 04:32:38;;;;;;;5.68;3.10;;;;;;;21.28;58.40;101828.16;5011757;28;20030;-58
2021/07/08 04:35:04;;;;;;;4.47;2.97;;;;;;;21.26;58.44;101830.94;5012185;28;20085;-58
2021/07/08 04:37:30;;;;;;;5.07;2.78;;;;;;;21.28;58.53;101830.81;5011036;28;20045;-58
2021/07/08 04:39:55;;;;;;;5.55;2.92;;;;;;;21.26;58.35;101833.59;5012161;28;20113;-58
2021/07/08 04:42:21;;;;;;;4.82;3.00;;;;;;;21.28;58.52;101844.06;5011842;28;20109;-58
2021/07/08 04:44:47;;;;;;;5.18;3.10;;;;;;;21.27;58.61;101845.91;5011447;28;20036;-58
2021/07/08 04:47:13;;;;;;;5.25;3.10;;;;;;;21.26;58.42;101838.06;5012287;28;20029;-58
2021/07/08 04:49:38;;;;;;;5.45;2.90;;;;;;;21.28;58.24;101850.22;5011912;28;20018;-57
2021/07/08 04:52:05;;;;;;;5.30;3.35;;;;;;;21.27;58.57;101853.84;5011399;28;20101;-58
2021/07/08 04:54:30;;;;;;;5.00;3.45;;;;;;;21.27;58.54;101853.84;5011662;28;20425;-58
2021/07/08 04:56:55;;;;;;;4.72;3.05;;;;;;;21.27;58.49;101852.97;5011941;28;20026;-57
2021/07/08 04:59:21;;;;;;;4.65;3.20;;;;;;;21.28;58.54;101857.34;5011810;28;20033;-57
2021/07/08 05:01:46;;;;;;;5.07;2.90;;;;;;;21.27;58.53;101861.81;5015627;28;20534;-57
2021/07/08 05:04:11;;;;;;;5.18;3.30;;;;;;;21.28;58.53;101865.28;5015769;28;20156;-57
2021/07/08 05:06:36;;;;;;;6.22;3.28;;;;;;;21.27;58.61;101871.53;5014639;28;20030;-58
2021/07/08 05:09:02;;;;;;;5.93;3.25;;;;;;;21.27;58.65;101871.53;5015686;28;20421;-58
2021/07/08 05:11:27;;;;;;;7.50;3.10;;;;;;;21.27;58.56;101876.84;5014556;28;20021;-57
2021/07/08 05:13:53;;;;;;;4.45;3.17;;;;;;;21.26;58.66;101876.00;5015387;28;20030;-57
2021/07/08 05:16:18;;;;;;;4.72;2.88;;;;;;;21.28;58.77;101873.25;5015455;28;20026;-58
2021/07/08 05:18:46;;;;;;;6.10;3.23;;;;;;;21.27;58.56;101871.53;5014589;28;20084;-57
2021/07/08 05:21:11;;;;;;;4.57;3.00;;;;;;;21.27;58.44;101877.72;5015447;28;20290;-58
2021/07/08 05:23:38;;;;;;;4.45;3.20;;;;;;;21.27;58.69;101880.34;5015012;28;20033;-58
2021/07/08 05:26:04;;;;;;;4.53;2.92;;;;;;;21.28;58.52;101879.38;5014400;28;20021;-58
2021/07/08 05:28:30;;;;;;;4.47;2.58;;;;;;;21.29;58.61;101890.84;5014818;28;20386;-59
2021/07/08 05:30:56;;;;;;;4.70;2.55;;;;;;;21.29;58.60;101885.53;5015332;28;20033;-57
2021/07/08 05:33:24;;;;;;;4.78;3.15;;;;;;;21.28;58.73;101879.38;5014179;28;20484;-57
2021/07/08 05:35:50;;;;;;;4.63;3.00;;;;;;;21.28;58.59;101882.03;5014908;28;20057;-57
2021/07/08 05:38:18;;;;;;;5.22;2.80;;;;;;;21.27;58.63;101882.16;5014738;28;20018;-57
2021/07/08 05:40:43;;;;;;;4.57;2.83;;;;;;;21.29;58.70;101878.41;5014144;28;20091;-57
2021/07/08 05:43:08;;;;;;;5.38;3.10;;;;;;;21.29;58.81;101878.41;5014805;28;20026;-57
2021/07/08 05:45:35;;;;;;;4.88;3.30;;;;;;;21.29;58.64;101873.13;5014532;28;20369;-56
2021/07/08 05:48:00;;;;;;;5.63;2.83;;;;;;;21.30;58.63;101866.88;5014103;28;20044;-57
2021/07/08 05:50:26;;;;;;;5.60;3.15;;;;;;;21.31;58.66;101860.56;5014545;28;20030;-58
2021/07/08 05:52:51;;;;;;;5.85;3.33;;;;;;;21.33;58.78;101869.28;5014709;28;20105;-58
2021/07/08 05:55:17;;;;;;;4.63;2.97;;;;;;;21.33;58.57;101866.63;5013409;28;20030;-57
2021/07/08 05:57:48;;;;;;;4.82;3.10;;;;;;;21.34;58.87;101867.47;5014826;28;20065;-56
2021/07/08 06:00:16;;;;;;;4.70;3.20;;;;;;;21.36;58.91;101873.47;5014816;28;20032;-57
2021/07/08 06:02:42;;;;;;;4.95;3.22;;;;;;;21.36;59.08;101884.94;5013919;28;20125;-58
2021/07/08 06:05:08;;;;;;;4.40;2.80;;;;;;;21.37;59.25;101883.97;5014804;28;20042;-58
2021/07/08 06:07:33;;;;;;;5.35;3.20;;;;;;;21.35;59.23;101885.91;5013904;28;20397;-59
2021/07/08 06:09:58;;;;;;;4.70;3.10;;;;;;;21.44;59.30;101896.75;5013462;28;20512;-58
2021/07/08 06:12:23;;;;;;;6.30;3.13;;;;;;;21.45;59.54;101893.13;5014180;28;20068;-56
2021/07/08 06:14:50;;;;;;;8.07;2.95;;;;;;;21.47;59.55;101902.63;5013740;28;20275;-58
2021/07/08 06:17:15;;;;;;;5.07;2.88;;;;;;;21.49;59.52;101903.41;5013453;28;20037;-57
2021/07/08 06:19:40;;;;;;;6.33;3.27;;;;;;;21.51;59.51;101905.94;5014365;28;20037;-58
2021/07/08 06:22:05;;;;;;;4.82;3.30;;;;;;;21.53;59.71;101902.19;5013523;28;20272;-59
2021/07/08 06:24:31;;;;;;;5.10;3.03;;;;;;;21.53;59.70;101901.34;5013938;28;20026;-58
2021/07/08 06:26:56;;;;;;;6.13;3.05;;;;;;;21.55;59.67;101902.94;5014258;28;20022;-58
2021/07/08 06:29:21;;;;;;;6.13;2.90;;;;;;;21.56;59.70;101903.75;5013555;28;20454;-58
2021/07/08 06:31:47;;;;;;;5.07;2.67;;;;;;;21.56;59.59;101903.75;5014154;28;20373;-58
2021/07/08 06:34:17;;;;;;;4.88;2.90;;;;;;;21.60;59.85;101905.19;5014097;28;20359;-58
2021/07/08 06:36:42;;;;;;;4.70;2.53;;;;;;;21.62;59.94;101908.59;5013415;28;20257;-57
2021/07/08 06:39:10;;;;;;;5.57;2.95;;;;;;;21.64;60.18;101909.28;5013998;28;20448;-56
2021/07/08 06:41:36;;;;;;;6.75;3.10;;;;;;;21.62;59.91;101915.69;5013783;28;20466;-59
2021/07/08 06:44:02;;;;;;;5.43;2.95;;;;;;;21.65;59.87;101920.75;5013524;28;20037;-57
2021/07/08 06:46:29;;;;;;;5.60;2.88;;;;;;;21.68;59.97;101931.97;5013835;28;20077;-59
2021/07/08 06:48:55;;;;;;;4.18;2.60;;;;;;;21.70;59.75;101924.72;5013925;28;20462;-57
2021/07/08 06:51:21;;;;;;;5.40;2.97;;;;;;;21.70;60.03;101929.19;5013002;28;20373;-60
2021/07/08 06:53:46;;;;;;;5.97;3.03;;;;;;;21.73;60.03;101929.78;5013688;28;20122;-59
2021/07/08 06:56:11;;;;;;;5.28;3.00;;;;;;;21.77;60.21;101934.84;5013841;28;20101;-57
2021/07/08 06:58:37;;;;;;;6.65;2.90;;;;;;;21.77;60.39;101930.38;5012837;28;20034;-58
2021/07/08 07:01:02;;;;;;;4.60;2.85;;;;;;;21.81;60.15;101931.84;5013807;28;20032;-57
2021/07/08 07:03:28;;;;;;;5.45;3.00;;;;;;;21.81;59.91;101938.94;5014408;28;20528;-58
2021/07/08 07:05:53;;;;;;;6.43;3.00;;;;;;;21.84;59.91;101941.34;5014501;28;20060;-59
2021/07/08 07:08:19;;;;;;;6.63;2.97;;;;;;;21.85;60.09;101935.91;5014207;28;20045;-58
2021/07/08 07:10:44;;;;;;;8.98;3.03;;;;;;;21.86;59.67;101934.13;5014008;28;20021;-58
2021/07/08 07:13:11;;;;;;;6.43;2.55;;;;;;;21.89;59.77;101932.06;5012989;28;20080;-58
2021/07/08 07:15:39;;;;;;;6.10;3.08;;;;;;;21.89;59.74;101937.38;5013687;28;20069;-58
2021/07/08 07:18:05;;;;;;;7.32;2.88;;;;;;;21.92;59.79;101941.56;5012582;28;20466;-59
2021/07/08 07:20:30;;;;;;;4.93;2.60;;;;;;;21.92;59.81;101937.13;5013388;28;20041;-58
2021/07/08 07:22:56;;;;;;;5.30;2.70;;;;;;;21.94;59.76;101939.66;5012655;28;20225;-58
2021/07/08 07:25:23;;;;;;;4.57;2.50;;;;;;;21.96;59.64;101945.66;5012507;28;20056;-58
2021/07/08 07:27:50;;;;;;;7.38;2.53;;;;;;;21.96;59.66;101936.88;5013492;28;20394;-57
2021/07/08 07:30:17;;;;;;;5.82;2.60;;;;;;;21.96;59.50;101942.19;5013035;28;20049;-58
2021/07/08 07:32:42;;;;;;;6.93;2.72;;;;;;;21.94;59.45;101937.00;5012428;28;20026;-57
2021/07/08 07:35:09;;;;;;;6.20;3.30;;;;;;;21.93;59.27;101940.59;5013183;28;20378;-56
2021/07/08 07:37:34;;;;;;;5.00;2.83;;;;;;;21.90;59.20;101939.06;5012762;28;20088;-56
2021/07/08 07:40:02;;;;;;;6.80;2.53;;;;;;;21.90;59.11;101941.72;5012344;28;20065;-57
2021/07/08 07:42:27;;;;;;;6.20;2.67;;;;;;;21.90;59.16;101949.69;5012872;28;20364;-57
2021/07/08 07:45:19;;;;;;;6.60;3.15;;;;;;;21.92;59.32;101949.53;5016858;28;20049;-60
2021/07/08 07:47:47;;;;;;;4.47;2.28;;;;;;;21.91;59.47;101955.81;4998367;28;20465;-57
2021/07/08 07:50:15;;;;;;;9.13;2.40;;;;;;;21.87;59.34;101947.28;5036850;28;20014;-58
2021/07/08 07:52:40;;;;;;;4.72;2.40;;;;;;;21.90;59.35;101959.44;5032785;28;20025;-57
2021/07/08 07:55:06;;;;;;;7.30;2.40;;;;;;;21.88;59.20;101956.06;5031909;28;20020;-57
2021/07/08 07:57:33;;;;;;;6.55;2.85;;;;;;;21.86;59.33;101950.03;5032111;28;20477;-59
2021/07/08 07:59:58;;;;;;;8.00;2.80;;;;;;;21.87;59.02;101954.38;5032333;28;20029;-56
2021/07/08 08:02:23;;;;;;;8.23;3.00;;;;;;;21.85;59.20;101940.38;5031338;28;20160;-56
2021/07/08 08:05:08;;;;;;;8.85;3.03;;;;;;;21.87;58.95;101938.44;5032368;28;20029;-58
2021/07/08 08:10:19;;;;;;;8.73;2.78;;;;;;;21.88;58.37;101942.78;5032831;28;20429;-58
2021/07/08 08:12:45;;;;;;;6.18;2.50;;;;;;;21.86;57.79;101931.47;5032579;28;20053;-58
2021/07/08 08:15:11;;;;;;;6.28;2.65;;;;;;;21.85;57.96;101929.78;5031374;28;20430;-58
2021/07/08 08:17:40;;;;;;;8.43;3.17;;;;;;;21.85;57.90;101935.06;5032168;28;20485;-57
2021/07/08 08:20:06;;;;;;;6.85;2.60;;;;;;;21.84;57.68;101938.69;5032109;28;20147;-57
2021/07/08 08:22:32;;;;;;;6.30;2.85;;;;;;;21.81;57.58;101929.19;5031072;28;20395;-57
2021/07/08 08:24:58;;;;;;;9.55;2.63;;;;;;;21.78;57.78;101926.78;5032322;28;20025;-56
2021/07/08 08:27:23;;;;;;;6.18;2.70;;;;;;;21.83;57.98;101929.06;5030572;28;20033;-58
2021/07/08 08:29:48;;;;;;;6.75;3.03;;;;;;;21.81;58.23;101929.19;5031395;28;20052;-57
2021/07/08 08:32:17;;;;;;;7.65;2.33;;;;;;;21.86;58.18;101944.75;5032263;28;20053;-56
2021/07/08 08:34:42;;;;;;;7.03;2.63;;;;;;;21.88;58.13;101934.84;5035711;28;20043;-57
2021/07/08 08:37:07;;;;;;;4.43;2.30;;;;;;;21.89;58.35;101945.31;5035068;28;20494;-57
2021/07/08 08:39:35;;;;;;;4.40;2.40;;;;;;;21.90;58.33;101946.16;5035743;28;20083;-57
2021/07/08 08:42:01;;;;;;;4.78;2.40;;;;;;;21.90;58.53;101944.38;5035997;28;20287;-57
2021/07/08 08:44:26;;;;;;;9.73;2.80;;;;;;;21.92;58.58;101941.56;5034901;28;20033;-58
2021/07/08 08:46:52;;;;;;;7.07;2.40;;;;;;;21.93;58.55;101954.72;5036179;28;20025;-57
2021/07/08 08:49:17;;;;;;;8.52;2.40;;;;;;;21.95;58.68;101959.06;5035772;28;20469;-58
2021/07/08 08:51:43;;;;;;;7.38;2.42;;;;;;;21.94;58.63;101950.28;5035257;28;20025;-58
2021/07/08 08:54:12;;;;;;;5.63;2.40;;;;;;;21.92;58.51;101950.41;5035836;28;20420;-58
2021/07/08 08:56:37;;;;;;;4.53;2.25;;;;;;;21.93;58.60;101948.56;5034835;28;20026;-57
2021/07/08 08:59:02;;;;;;;5.90;2.40;;;;;;;21.91;58.54;101947.84;5035961;28;20051;-57
2021/07/08 09:01:30;;;;;;;6.95;2.53;;;;;;;21.91;58.76;101948.69;5035373;28;20068;-57
2021/07/08 09:03:55;;;;;;;6.00;2.50;;;;;;;21.91;58.75;101953.16;5035103;28;20135;-57
2021/07/08 09:06:21;;;;;;;5.93;2.30;;;;;;;21.89;58.72;101958.59;5035472;28;20063;-57
2021/07/08 09:08:52;;;;;;;7.60;2.80;;;;;;;21.88;58.60;101948.09;5035682;28;20029;-57
2021/07/08 09:11:23;;;;;;;5.72;2.70;;;;;;;21.88;58.68;101948.09;5034564;28;20017;-58
2021/07/08 09:13:53;;;;;;;5.40;2.47;;;;;;;21.90;58.61;101954.13;5035656;28;20381;-58
2021/07/08 09:16:24;;;;;;;6.10;2.38;;;;;;;21.89;58.57;101955.94;5035437;28;20095;-56
2021/07/08 09:19:05;;;;;;;5.00;2.20;;;;;;;21.89;58.55;101955.94;5034750;28;20076;-57
2021/07/08 09:21:33;;;;;;;6.70;2.58;;;;;;;21.89;58.42;101963.06;5035220;28;20461;-58
2021/07/08 09:24:13;;;;;;;4.57;2.47;;;;;;;21.88;58.61;101966.69;5035266;28;20080;-58
2021/07/08 09:26:55;;;;;;;4.95;2.20;;;;;;;21.88;58.36;101985.25;5034075;28;20025;-57
2021/07/08 09:29:24;;;;;;;4.85;2.40;;;;;;;21.89;58.66;101992.25;5034982;28;20024;-57
2021/07/08 09:31:58;;;;;;;6.15;2.30;;;;;;;21.89;58.58;101984.31;5034414;28;20359;-57
2021/07/08 09:34:25;;;;;;;5.30;2.28;;;;;;;21.89;58.47;101979.81;5034927;28;20090;-58
2021/07/08 09:37:04;;;;;;;5.32;2.33;;;;;;;21.92;58.60;101984.03;5035175;28;20046;-56
2021/07/08 09:39:35;;;;;;;4.68;2.20;;;;;;;21.88;58.48;101982.59;5033963;28;20072;-57
2021/07/08 09:42:01;;;;;;;5.55;2.30;;;;;;;21.90;58.42;101985.97;5035213;28;20052;-58
2021/07/08 09:44:28;;;;;;;4.50;2.05;;;;;;;21.88;58.66;101982.59;5034232;28;20025;-58
2021/07/08 09:46:54;;;;;;;4.20;2.17;;;;;;;21.88;58.61;101988.75;5033680;28;20380;-58
2021/07/08 09:49:21;;;;;;;5.57;2.05;;;;;;;21.86;58.56;101995.16;5034874;28;20175;-57
2021/07/08 09:51:47;;;;;;;4.15;2.20;;;;;;;21.86;58.61;102011.91;5035165;28;20070;-57
2021/07/08 09:54:17;;;;;;;5.65;2.22;;;;;;;21.87;58.66;102007.44;5034301;28;20060;-58
2021/07/08 09:59:22;;;;;;;5.95;2.40;;;;;;;21.88;58.61;101995.88;5034056;28;20030;-59
2021/07/08 10:01:58;;;;;;;3.03;1.70;;;;;;;21.89;58.25;101992.25;5033990;28;20064;-58
2021/07/08 10:04:23;;;;;;;3.88;2.17;;;;;;;21.89;58.71;101994.91;5034247;28;20037;-58
2021/07/08 10:06:51;;;;;;;4.53;2.33;;;;;;;21.90;58.57;101997.44;5033880;28;20164;-58
2021/07/08 10:09:19;;;;;;;5.05;2.20;;;;;;;21.89;58.47;101979.81;5034440;28;20104;-57
2021/07/08 10:11:48;;;;;;;4.57;2.28;;;;;;;21.90;58.42;101980.66;5034707;28;20049;-57
2021/07/08 10:14:16;;;;;;;3.75;1.92;;;;;;;21.89;58.40;101985.13;5034257;28;20479;-58
2021/07/08 10:16:45;;;;;;;4.70;1.80;;;;;;;21.91;58.50;101987.66;5034963;28;20067;-57
2021/07/08 10:19:16;;;;;;;4.85;1.95;;;;;;;21.90;58.39;101991.28;5035501;28;20030;-59
2021/07/08 10:21:42;;;;;;;3.42;1.90;;;;;;;21.89;58.48;101981.66;5033937;28;20025;-58
2021/07/08 10:24:08;;;;;;;4.35;1.98;;;;;;;21.91;58.37;101987.66;5034364;28;20053;-58
2021/07/08 10:26:33;;;;;;;3.22;1.95;;;;;;;21.90;58.26;101985.97;5033958;28;20048;-57
2021/07/08 10:28:59;;;;;;;3.50;1.90;;;;;;;21.89;58.06;101981.66;5033586;28;20025;-58
2021/07/08 10:31:25;;;;;;;4.25;2.20;;;;;;;21.89;58.46;101982.47;5033829;28;20473;-58
2021/07/08 10:34:09;;;;;;;3.83;2.30;;;;;;;21.89;58.40;101990.44;5034173;28;20108;-59
2021/07/08 10:36:36;;;;;;;4.85;1.95;;;;;;;21.88;58.36;101983.44;5032597;28;20064;-58
2021/07/08 10:39:05;;;;;;;4.55;2.30;;;;;;;21.87;58.30;101984.41;5034052;28;20036;-57
2021/07/08 10:41:30;;;;;;;4.35;2.10;;;;;;;21.87;58.39;101984.41;5033863;28;20053;-58
2021/07/08 10:43:56;;;;;;;3.30;1.70;;;;;;;21.86;58.38;101985.38;5033210;28;20504;-58
2021/07/08 10:46:34;;;;;;;6.80;2.50;;;;;;;21.87;58.29;101983.56;5033664;28;20086;-58
2021/07/08 10:49:10;;;;;;;4.00;2.10;;;;;;;21.85;58.39;101967.75;5033078;28;20033;-58
2021/07/08 10:51:38;;;;;;;3.20;1.80;;;;;;;21.86;58.45;101971.28;5033783;28;20021;-59
2021/07/08 10:54:26;;;;;;;4.10;2.10;;;;;;;21.87;58.35;101978.25;5033864;28;20129;-58
2021/07/08 10:56:56;;;;;;;4.00;2.00;;;;;;;21.81;58.32;101963.69;5033192;28;20031;-57
2021/07/08 10:59:36;;;;;;;4.05;2.10;;;;;;;21.86;58.50;101969.44;5033124;28;20469;-56
2021/07/08 11:02:01;;;;;;;5.75;2.05;;;;;;;21.90;58.54;101964.75;5033821;28;20470;-57
2021/07/08 11:04:50;;;;;;;3.67;1.80;;;;;;;21.91;58.77;101956.66;5032615;28;20025;-57
2021/07/08 11:07:21;;;;;;;3.65;2.00;;;;;;;21.95;58.87;101959.91;5033349;28;20032;-57
2021/07/08 11:10:04;;;;;;;4.50;1.70;;;;;;;21.98;58.75;101964.97;5033405;28;20083;-56
2021/07/08 11:12:40;;;;;;;5.00;2.20;;;;;;;21.98;59.16;101958.81;5033035;28;20432;-55
2021/07/08 11:15:07;;;;;;;5.10;2.08;;;;;;;21.99;58.97;101955.22;5033247;28;20124;-55
2021/07/08 11:17:40;;;;;;;5.13;2.10;;;;;;;22.02;58.98;101957.63;5032287;28;20075;-57
2021/07/08 11:20:26;;;;;;;4.07;2.00;;;;;;;22.02;59.30;101963.75;5033176;28;20037;-57
2021/07/08 11:22:54;;;;;;;7.45;2.10;;;;;;;22.06;59.23;101965.22;5033512;28;20033;-57
2021/07/08 11:25:20;;;;;;;4.38;1.90;;;;;;;22.09;59.07;101967.59;5031954;28;20462;-56
2021/07/08 11:27:47;;;;;;;4.90;2.00;;;;;;;22.09;58.95;101961.44;5033182;28;20067;-57
2021/07/08 11:30:15;;;;;;;3.70;2.05;;;;;;;22.12;58.99;101955.91;5033042;28;20017;-56